MSC Ela — H3MJ — position and weather

sailwx.info

Track history (hours):
 
Tides and Currents Weather Stations Pressure Air Temp Water Temp Dewpoint Dewpoint Depression Visibility Wind Speed Wind Dir Waves Ship Positions

MSC Ela

Last reported at 2018-Jan-12 06:29 UTC. Time now 2018-Jan-20 19:22 UTC.
Position N 43°02' E 007°00'.
Warning: this ship's position is 8 days out of date.

Length 294 m; draft 8.9 m.

Type: Ship (hazmat cat A). MMSI: 353934000.

Date/timePositionNaut miles runAvg speedWind from/ knotsBaromVisibWave heightAir tempDewpointWater temp
2018-Jan-12 06:29N 43°02' E 007°00'918.5
2018-Jan-12 06:01N 43°08' E 007°09'918.3
2018-Jan-12 05:30N 43°14' E 007°19'918.4
2018-Jan-12 05:00N 43°21' E 007°28'1018.2
2018-Jan-12 04:27N 43°27' E 007°38'1018.3
2018-Jan-12 03:55N 43°34' E 007°48'3318.5
2018-Jan-12 02:08N 43°58' E 008°20'318.9
2018-Jan-12 01:58N 44°01' E 008°22'919.5
2018-Jan-12 01:31N 44°08' E 008°29'919.0
2018-Jan-12 01:01N 44°16' E 008°37'815.9
2018-Jan-12 00:30N 44°22' E 008°43'4 8.2
2018-Jan-12 00:00N 44°25' E 008°47'0 0.4
2018-Jan-11 23:28N 44°25' E 008°47'0 0.0
2018-Jan-11 22:58N 44°25' E 008°47'0 0.0
2018-Jan-11 22:28N 44°25' E 008°47'0 0.0
2018-Jan-11 21:58N 44°25' E 008°47'0 0.0
2018-Jan-11 21:28N 44°25' E 008°47'0 0.0
2018-Jan-11 20:58N 44°25' E 008°47'0 0.0
2018-Jan-11 20:28N 44°25' E 008°47'0 0.0
2018-Jan-11 19:58N 44°25' E 008°47'0 0.0
2018-Jan-11 19:28N 44°25' E 008°47'0 0.0
2018-Jan-11 18:58N 44°25' E 008°47'0 0.0
2018-Jan-11 18:25N 44°25' E 008°47'0 0.0
2018-Jan-11 17:58N 44°25' E 008°47'0 0.0
2018-Jan-11 17:28N 44°25' E 008°47'0 0.2
2018-Jan-11 17:00N 44°25' E 008°47'3 5.1
2018-Jan-11 16:30N 44°24' E 008°44'3 5.8
2018-Jan-11 16:00N 44°21' E 008°43'1 1.9
2018-Jan-11 15:30N 44°20' E 008°43'2 4.2
2018-Jan-11 15:00N 44°19' E 008°45'1 2.0
2018-Jan-11 14:30N 44°18' E 008°46'0 0.5
2018-Jan-11 14:00N 44°17' E 008°45'2 4.4
2018-Jan-11 13:30N 44°16' E 008°44'1 2.3
2018-Jan-11 13:00N 44°15' E 008°42'1 2.0
2018-Jan-11 12:30N 44°16' E 008°43'1 2.0
2018-Jan-11 12:00N 44°17' E 008°43'1 1.9
2018-Jan-11 11:30N 44°18' E 008°44'1 2.2
2018-Jan-11 11:00N 44°19' E 008°45'2 4.3
2018-Jan-11 10:30N 44°17' E 008°48'3 6.2
2018-Jan-11 10:00N 44°15' E 008°51'3 6.0
2018-Jan-11 09:30N 44°13' E 008°54'3 6.3
2018-Jan-11 09:00N 44°11' E 008°57'3 6.7
2018-Jan-11 08:30N 44°08' E 008°60'510.5
2018-Jan-11 08:00N 44°04' E 009°05'611.1
2018-Jan-11 07:30N 44°00' E 009°10'510.9
2018-Jan-11 07:00N 43°56' E 009°15'510.9
2018-Jan-11 06:30N 43°52' E 009°21'611.0
2018-Jan-11 06:00N 43°48' E 009°26'511.0
2018-Jan-11 05:30N 43°44' E 009°31'611.1
2018-Jan-11 05:00N 43°40' E 009°36'611.1
2018-Jan-11 04:30N 43°36' E 009°42'510.7
2018-Jan-11 04:00N 43°33' E 009°47'511.0
2018-Jan-11 03:30N 43°31' E 009°54'510.8
2018-Jan-11 03:00N 43°30' E 010°02'611.2
2018-Jan-11 02:30N 43°31' E 010°09'4 7.9
2018-Jan-11 02:00N 43°32' E 010°15'3 5.8
2018-Jan-11 01:30N 43°34' E 010°18'1 1.8
2018-Jan-11 00:58N 43°35' E 010°18'0 0.0
2018-Jan-11 00:28N 43°35' E 010°18'0 0.0
2018-Jan-10 23:55N 43°35' E 010°18'0 0.0
2018-Jan-10 23:28N 43°35' E 010°18'0 0.0
2018-Jan-10 22:58N 43°35' E 010°18'0 0.0
2018-Jan-10 22:28N 43°35' E 010°18'0 0.0
2018-Jan-10 21:58N 43°35' E 010°18'0 0.0
2018-Jan-10 21:28N 43°35' E 010°18'0 0.0
2018-Jan-10 20:58N 43°35' E 010°18'0 0.0
2018-Jan-10 20:28N 43°35' E 010°18'0 0.0
2018-Jan-10 19:58N 43°35' E 010°18'0 0.0
2018-Jan-10 19:25N 43°35' E 010°18'0 0.0
2018-Jan-10 18:58N 43°35' E 010°18'0 0.0
2018-Jan-10 18:28N 43°35' E 010°18'0 0.0
2018-Jan-10 17:58N 43°35' E 010°18'0 0.0
2018-Jan-10 17:28N 43°35' E 010°18'0 0.0
2018-Jan-10 16:58N 43°35' E 010°18'0 0.0
2018-Jan-10 16:28N 43°35' E 010°18'0 0.0
2018-Jan-10 15:58N 43°35' E 010°18'0 0.0
2018-Jan-10 15:30N 43°35' E 010°18'2 3.5
2018-Jan-10 15:00N 43°33' E 010°17'3 6.8
2018-Jan-10 14:30N 43°30' E 010°14'4 7.1
2018-Jan-10 14:00N 43°28' E 010°11'714.3
2018-Jan-10 13:31N 43°23' E 010°04'713.2
2018-Jan-10 13:00N 43°20' E 009°56'714.3
2018-Jan-10 12:30N 43°19' E 009°46'714.3
2018-Jan-10 12:00N 43°18' E 009°36'714.1
2018-Jan-10 11:30N 43°17' E 009°27'815.4
2018-Jan-10 11:00N 43°15' E 009°17'1017.5
2018-Jan-10 10:26N 43°11' E 009°04'32721.1
2018-Jan-09 18:55N 41°16' E 002°11'3 0.2
2018-Jan-09 02:22N 41°19' E 002°09'2 4.1
2018-Jan-09 02:00N 41°18' E 002°11'7 7.6
2018-Jan-09 01:06N 41°11' E 002°08'1 6.1
2018-Jan-09 00:59N 41°11' E 002°09'1 2.2
2018-Jan-09 00:30N 41°11' E 002°10'1 0.8
2018-Jan-08 23:32N 41°10' E 002°10'0 0.9
2018-Jan-08 23:30N 41°10' E 002°10'1 1.6
2018-Jan-08 23:00N 41°10' E 002°10'1 1.7
2018-Jan-08 22:30N 41°09' E 002°09'0 0.3
2018-Jan-08 22:00N 41°09' E 002°09'0 0.7
2018-Jan-08 21:30N 41°09' E 002°08'0 0.7
2018-Jan-08 21:00N 41°10' E 002°08'0 0.2
2018-Jan-08 19:44N 41°10' E 002°08'0 0.3
2018-Jan-08 19:27N 41°10' E 002°08'0 0.3
2018-Jan-08 19:00N 41°10' E 002°08'0 0.2
2018-Jan-08 18:30N 41°10' E 002°08'0 0.3
2018-Jan-08 18:00N 41°10' E 002°08'0 0.3
2018-Jan-08 17:28N 41°09' E 002°08'0 0.3
2018-Jan-08 17:00N 41°09' E 002°08'0 0.3
2018-Jan-08 16:30N 41°09' E 002°08'0 0.4
2018-Jan-08 15:59N 41°09' E 002°09'1 0.6
2018-Jan-08 14:43N 41°09' E 002°08'3 5.5
2018-Jan-08 14:10N 41°07' E 002°05'2 9.2
2018-Jan-08 13:59N 41°05' E 002°04'5 9.3
2018-Jan-08 13:30N 41°01' E 002°01'510.2
2018-Jan-08 13:00N 40°56' E 001°58'610.3
2018-Jan-08 12:26N 40°51' E 001°55'217 8.9
2018-Jan-07 12:00N 37°42' W 000°23'510.3
2018-Jan-07 11:30N 37°38' W 000°27'510.1
2018-Jan-07 11:00N 37°34' W 000°30'5 9.5
2018-Jan-07 10:30N 37°31' W 000°34'5 9.3
2018-Jan-07 10:00N 37°28' W 000°39'5 9.7
2018-Jan-07 09:31N 37°24' W 000°43'5 9.6
2018-Jan-07 09:00N 37°21' W 000°48'5 9.6
2018-Jan-07 08:28N 37°18' W 000°53'5 9.5
2018-Jan-07 07:56N 37°14' W 000°57'5 9.3
2018-Jan-07 07:25N 37°11' W 001°02'211 9.0
2018-Jan-06 07:52N 36°01' W 005°09'514.4
2018-Jan-06 07:30N 35°60' W 005°16'815.7
2018-Jan-06 07:00N 35°58' W 005°25'90319.8
2018-Jan-04 09:26N 38°48' W 024°01'920.1
2018-Jan-04 09:00N 38°50' W 024°12'1020.4
2018-Jan-04 08:30N 38°52' W 024°24'1521.3
2018-Jan-04 07:48N 38°55' W 024°43'621.3
2018-Jan-04 07:30N 38°57' W 024°51'2321.1
2018-Jan-04 06:25N 39°02' W 025°20'5021.1
2018-Jan-04 04:01N 39°13' W 026°23'421.5
2018-Jan-04 03:51N 39°13' W 026°28'721.4
2018-Jan-04 03:30N 39°15' W 026°37'1121.4
2018-Jan-04 03:00N 39°17' W 026°51'1121.5
2018-Jan-04 02:30N 39°20' W 027°04'1121.3
2018-Jan-04 02:01N 39°24' W 027°17'1121.4
2018-Jan-04 01:30N 39°27' W 027°31'1121.6
2018-Jan-04 01:00N 39°29' W 027°44'1121.6
2018-Jan-04 00:30N 39°30' W 027°58'1121.3
2018-Jan-04 00:01N 39°31' W 028°12'1121.4
2018-Jan-03 23:30N 39°33' W 028°25'1021.1
2018-Jan-03 23:00N 39°35' W 028°39'1121.3
2018-Jan-03 22:30N 39°37' W 028°52'1121.2
2018-Jan-03 22:00N 39°39' W 029°06'1121.2
2018-Jan-03 21:30N 39°41' W 029°19'1121.1
2018-Jan-03 21:00N 39°43' W 029°33'1021.0
2018-Jan-03 20:30N 39°45' W 029°46'1121.6
2018-Jan-03 19:59N 39°47' W 030°01'1021.2
2018-Jan-03 19:30N 39°49' W 030°14'8021.5
2018-Jan-03 15:47N 40°05' W 031°56'  
Track history (hours):
 
Tides and Currents Weather Stations Pressure Air Temp Water Temp Dewpoint Dewpoint Depression Visibility Wind Speed Wind Dir Waves Ship Positions

MSC Ela

Last reported at 2018-Jan-12 06:29 UTC. Time now 2018-Jan-20 19:23 UTC.
Position N 43°02' E 007°00'.
Warning: this ship's position is 8 days out of date.

Length 294 m; draft 8.9 m.

Type: Ship (hazmat cat A). MMSI: 353934000.

Date/timePositionNaut miles runAvg speedWind from/ knotsBaromVisibWave heightAir tempDewpointWater temp
2018-Jan-12 06:29N 43°02' E 007°00'918.5
2018-Jan-12 06:01N 43°08' E 007°09'918.3
2018-Jan-12 05:30N 43°14' E 007°19'918.4
2018-Jan-12 05:00N 43°21' E 007°28'1018.2
2018-Jan-12 04:27N 43°27' E 007°38'1018.3
2018-Jan-12 03:55N 43°34' E 007°48'3318.5
2018-Jan-12 02:08N 43°58' E 008°20'318.9
2018-Jan-12 01:58N 44°01' E 008°22'919.5
2018-Jan-12 01:31N 44°08' E 008°29'919.0
2018-Jan-12 01:01N 44°16' E 008°37'815.9
2018-Jan-12 00:30N 44°22' E 008°43'4 8.2
2018-Jan-12 00:00N 44°25' E 008°47'0 0.4
2018-Jan-11 23:28N 44°25' E 008°47'0 0.0
2018-Jan-11 22:58N 44°25' E 008°47'0 0.0
2018-Jan-11 22:28N 44°25' E 008°47'0 0.0
2018-Jan-11 21:58N 44°25' E 008°47'0 0.0
2018-Jan-11 21:28N 44°25' E 008°47'0 0.0
2018-Jan-11 20:58N 44°25' E 008°47'0 0.0
2018-Jan-11 20:28N 44°25' E 008°47'0 0.0
2018-Jan-11 19:58N 44°25' E 008°47'0 0.0
2018-Jan-11 19:28N 44°25' E 008°47'0 0.0
2018-Jan-11 18:58N 44°25' E 008°47'0 0.0
2018-Jan-11 18:25N 44°25' E 008°47'0 0.0
2018-Jan-11 17:58N 44°25' E 008°47'0 0.0
2018-Jan-11 17:28N 44°25' E 008°47'0 0.2
2018-Jan-11 17:00N 44°25' E 008°47'3 5.1
2018-Jan-11 16:30N 44°24' E 008°44'3 5.8
2018-Jan-11 16:00N 44°21' E 008°43'1 1.9
2018-Jan-11 15:30N 44°20' E 008°43'2 4.2
2018-Jan-11 15:00N 44°19' E 008°45'1 2.0
2018-Jan-11 14:30N 44°18' E 008°46'0 0.5
2018-Jan-11 14:00N 44°17' E 008°45'2 4.4
2018-Jan-11 13:30N 44°16' E 008°44'1 2.3
2018-Jan-11 13:00N 44°15' E 008°42'1 2.0
2018-Jan-11 12:30N 44°16' E 008°43'1 2.0
2018-Jan-11 12:00N 44°17' E 008°43'1 1.9
2018-Jan-11 11:30N 44°18' E 008°44'1 2.2
2018-Jan-11 11:00N 44°19' E 008°45'2 4.3
2018-Jan-11 10:30N 44°17' E 008°48'3 6.2
2018-Jan-11 10:00N 44°15' E 008°51'3 6.0
2018-Jan-11 09:30N 44°13' E 008°54'3 6.3
2018-Jan-11 09:00N 44°11' E 008°57'3 6.7
2018-Jan-11 08:30N 44°08' E 008°60'510.5
2018-Jan-11 08:00N 44°04' E 009°05'611.1
2018-Jan-11 07:30N 44°00' E 009°10'510.9
2018-Jan-11 07:00N 43°56' E 009°15'510.9
2018-Jan-11 06:30N 43°52' E 009°21'611.0
2018-Jan-11 06:00N 43°48' E 009°26'511.0
2018-Jan-11 05:30N 43°44' E 009°31'611.1
2018-Jan-11 05:00N 43°40' E 009°36'611.1
2018-Jan-11 04:30N 43°36' E 009°42'510.7
2018-Jan-11 04:00N 43°33' E 009°47'511.0
2018-Jan-11 03:30N 43°31' E 009°54'510.8
2018-Jan-11 03:00N 43°30' E 010°02'611.2
2018-Jan-11 02:30N 43°31' E 010°09'4 7.9
2018-Jan-11 02:00N 43°32' E 010°15'3 5.8
2018-Jan-11 01:30N 43°34' E 010°18'1 1.8
2018-Jan-11 00:58N 43°35' E 010°18'0 0.0
2018-Jan-11 00:28N 43°35' E 010°18'0 0.0
2018-Jan-10 23:55N 43°35' E 010°18'0 0.0
2018-Jan-10 23:28N 43°35' E 010°18'0 0.0
2018-Jan-10 22:58N 43°35' E 010°18'0 0.0
2018-Jan-10 22:28N 43°35' E 010°18'0 0.0
2018-Jan-10 21:58N 43°35' E 010°18'0 0.0
2018-Jan-10 21:28N 43°35' E 010°18'0 0.0
2018-Jan-10 20:58N 43°35' E 010°18'0 0.0
2018-Jan-10 20:28N 43°35' E 010°18'0 0.0
2018-Jan-10 19:58N 43°35' E 010°18'0 0.0
2018-Jan-10 19:25N 43°35' E 010°18'0 0.0
2018-Jan-10 18:58N 43°35' E 010°18'0 0.0
2018-Jan-10 18:28N 43°35' E 010°18'0 0.0
2018-Jan-10 17:58N 43°35' E 010°18'0 0.0
2018-Jan-10 17:28N 43°35' E 010°18'0 0.0
2018-Jan-10 16:58N 43°35' E 010°18'0 0.0
2018-Jan-10 16:28N 43°35' E 010°18'0 0.0
2018-Jan-10 15:58N 43°35' E 010°18'0 0.0
2018-Jan-10 15:30N 43°35' E 010°18'2 3.5
2018-Jan-10 15:00N 43°33' E 010°17'3 6.8
2018-Jan-10 14:30N 43°30' E 010°14'4 7.1
2018-Jan-10 14:00N 43°28' E 010°11'714.3
2018-Jan-10 13:31N 43°23' E 010°04'713.2
2018-Jan-10 13:00N 43°20' E 009°56'714.3
2018-Jan-10 12:30N 43°19' E 009°46'714.3
2018-Jan-10 12:00N 43°18' E 009°36'714.1
2018-Jan-10 11:30N 43°17' E 009°27'815.4
2018-Jan-10 11:00N 43°15' E 009°17'1017.5
2018-Jan-10 10:26N 43°11' E 009°04'32721.1
2018-Jan-09 18:55N 41°16' E 002°11'3 0.2
2018-Jan-09 02:22N 41°19' E 002°09'2 4.1
2018-Jan-09 02:00N 41°18' E 002°11'7 7.6
2018-Jan-09 01:06N 41°11' E 002°08'1 6.1
2018-Jan-09 00:59N 41°11' E 002°09'1 2.2
2018-Jan-09 00:30N 41°11' E 002°10'1 0.8
2018-Jan-08 23:32N 41°10' E 002°10'0 0.9
2018-Jan-08 23:30N 41°10' E 002°10'1 1.6
2018-Jan-08 23:00N 41°10' E 002°10'1 1.7
2018-Jan-08 22:30N 41°09' E 002°09'0 0.3
2018-Jan-08 22:00N 41°09' E 002°09'0 0.7
2018-Jan-08 21:30N 41°09' E 002°08'0 0.7
2018-Jan-08 21:00N 41°10' E 002°08'0 0.2
2018-Jan-08 19:44N 41°10' E 002°08'0 0.3
2018-Jan-08 19:27N 41°10' E 002°08'0 0.3
2018-Jan-08 19:00N 41°10' E 002°08'0 0.2
2018-Jan-08 18:30N 41°10' E 002°08'0 0.3
2018-Jan-08 18:00N 41°10' E 002°08'0 0.3
2018-Jan-08 17:28N 41°09' E 002°08'0 0.3
2018-Jan-08 17:00N 41°09' E 002°08'0 0.3
2018-Jan-08 16:30N 41°09' E 002°08'0 0.4
2018-Jan-08 15:59N 41°09' E 002°09'1 0.6
2018-Jan-08 14:43N 41°09' E 002°08'3 5.5
2018-Jan-08 14:10N 41°07' E 002°05'2 9.2
2018-Jan-08 13:59N 41°05' E 002°04'5 9.3
2018-Jan-08 13:30N 41°01' E 002°01'510.2
2018-Jan-08 13:00N 40°56' E 001°58'610.3
2018-Jan-08 12:26N 40°51' E 001°55'217 8.9
2018-Jan-07 12:00N 37°42' W 000°23'510.3
2018-Jan-07 11:30N 37°38' W 000°27'510.1
2018-Jan-07 11:00N 37°34' W 000°30'5 9.5
2018-Jan-07 10:30N 37°31' W 000°34'5 9.3
2018-Jan-07 10:00N 37°28' W 000°39'5 9.7
2018-Jan-07 09:31N 37°24' W 000°43'5 9.6
2018-Jan-07 09:00N 37°21' W 000°48'5 9.6
2018-Jan-07 08:28N 37°18' W 000°53'5 9.5
2018-Jan-07 07:56N 37°14' W 000°57'5 9.3
2018-Jan-07 07:25N 37°11' W 001°02'211 9.0
2018-Jan-06 07:52N 36°01' W 005°09'514.4
2018-Jan-06 07:30N 35°60' W 005°16'815.7
2018-Jan-06 07:00N 35°58' W 005°25'90319.8
2018-Jan-04 09:26N 38°48' W 024°01'920.1
2018-Jan-04 09:00N 38°50' W 024°12'1020.4
2018-Jan-04 08:30N 38°52' W 024°24'1521.3
2018-Jan-04 07:48N 38°55' W 024°43'621.3
2018-Jan-04 07:30N 38°57' W 024°51'2321.1
2018-Jan-04 06:25N 39°02' W 025°20'5021.1
2018-Jan-04 04:01N 39°13' W 026°23'421.5
2018-Jan-04 03:51N 39°13' W 026°28'721.4
2018-Jan-04 03:30N 39°15' W 026°37'1121.4
2018-Jan-04 03:00N 39°17' W 026°51'1121.5
2018-Jan-04 02:30N 39°20' W 027°04'1121.3
2018-Jan-04 02:01N 39°24' W 027°17'1121.4
2018-Jan-04 01:30N 39°27' W 027°31'1121.6
2018-Jan-04 01:00N 39°29' W 027°44'1121.6
2018-Jan-04 00:30N 39°30' W 027°58'1121.3
2018-Jan-04 00:01N 39°31' W 028°12'1121.4
2018-Jan-03 23:30N 39°33' W 028°25'1021.1
2018-Jan-03 23:00N 39°35' W 028°39'1121.3
2018-Jan-03 22:30N 39°37' W 028°52'1121.2
2018-Jan-03 22:00N 39°39' W 029°06'1121.2
2018-Jan-03 21:30N 39°41' W 029°19'1121.1
2018-Jan-03 21:00N 39°43' W 029°33'1021.0
2018-Jan-03 20:30N 39°45' W 029°46'1121.6
2018-Jan-03 19:59N 39°47' W 030°01'1021.2
2018-Jan-03 19:30N 39°49' W 030°14'8021.5
2018-Jan-03 15:47N 40°05' W 031°56'  

Dump ship's entire track history